sensor_id;sensor_type;location;lat;lon;timestamp;temperature;humidity
11609;DHT22;5860;52.018;8.536;2022-10-31T00:00:48;14.20;99.90
11609;DHT22;5860;52.018;8.536;2022-10-31T00:03:16;14.20;99.90
11609;DHT22;5860;52.018;8.536;2022-10-31T00:05:45;14.20;99.90
11609;DHT22;5860;52.018;8.536;2022-10-31T00:08:12;14.10;99.90
11609;DHT22;5860;52.018;8.536;2022-10-31T00:10:40;14.10;99.90
11609;DHT22;5860;52.018;8.536;2022-10-31T00:13:09;14.10;99.90
11609;DHT22;5860;52.018;8.536;2022-10-31T00:15:38;14.00;99.90
11609;DHT22;5860;52.018;8.536;2022-10-31T00:18:05;14.00;99.90
11609;DHT22;5860;52.018;8.536;2022-10-31T00:20:33;13.90;99.90
11609;DHT22;5860;52.018;8.536;2022-10-31T00:23:01;13.90;99.90
11609;DHT22;5860;52.018;8.536;2022-10-31T00:25:29;13.90;99.90
11609;DHT22;5860;52.018;8.536;2022-10-31T00:27:59;13.80;99.90
11609;DHT22;5860;52.018;8.536;2022-10-31T00:30:26;13.80;99.90
11609;DHT22;5860;52.018;8.536;2022-10-31T00:32:53;13.90;99.90
11609;DHT22;5860;52.018;8.536;2022-10-31T00:35:20;13.90;99.90
11609;DHT22;5860;52.018;8.536;2022-10-31T00:37:46;13.90;99.90
11609;DHT22;5860;52.018;8.536;2022-10-31T00:40:13;13.80;99.90
11609;DHT22;5860;52.018;8.536;2022-10-31T00:42:40;13.80;99.90
11609;DHT22;5860;52.018;8.536;2022-10-31T00:45:09;13.80;99.90
11609;DHT22;5860;52.018;8.536;2022-10-31T00:47:36;13.70;99.90
11609;DHT22;5860;52.018;8.536;2022-10-31T00:50:05;13.70;99.90
11609;DHT22;5860;52.018;8.536;2022-10-31T00:52:32;13.70;99.90
11609;DHT22;5860;52.018;8.536;2022-10-31T00:54:59;13.70;99.90
11609;DHT22;5860;52.018;8.536;2022-10-31T00:57:26;13.50;99.90
11609;DHT22;5860;52.018;8.536;2022-10-31T00:59:52;13.40;99.90
11609;DHT22;5860;52.018;8.536;2022-10-31T01:02:19;13.30;99.90
11609;DHT22;5860;52.018;8.536;2022-10-31T01:04:46;13.50;99.90
11609;DHT22;5860;52.018;8.536;2022-10-31T01:07:13;13.40;99.90
11609;DHT22;5860;52.018;8.536;2022-10-31T01:09:40;13.50;99.90
11609;DHT22;5860;52.018;8.536;2022-10-31T01:12:08;13.40;99.90
11609;DHT22;5860;52.018;8.536;2022-10-31T01:14:35;13.40;99.90
11609;DHT22;5860;52.018;8.536;2022-10-31T01:17:01;13.40;99.90
11609;DHT22;5860;52.018;8.536;2022-10-31T01:19:28;13.40;99.90
11609;DHT22;5860;52.018;8.536;2022-10-31T01:21:55;13.30;99.90
11609;DHT22;5860;52.018;8.536;2022-10-31T01:24:22;13.20;99.90
11609;DHT22;5860;52.018;8.536;2022-10-31T01:26:49;13.10;99.90
11609;DHT22;5860;52.018;8.536;2022-10-31T01:29:16;13.20;99.90
11609;DHT22;5860;52.018;8.536;2022-10-31T01:31:43;13.10;99.90
11609;DHT22;5860;52.018;8.536;2022-10-31T01:34:15;13.10;99.90
11609;DHT22;5860;52.018;8.536;2022-10-31T01:36:43;13.00;99.90
11609;DHT22;5860;52.018;8.536;2022-10-31T01:39:13;12.90;99.90
11609;DHT22;5860;52.018;8.536;2022-10-31T01:41:49;12.90;99.90
11609;DHT22;5860;52.018;8.536;2022-10-31T01:52:18;12.90;99.90
11609;DHT22;5860;52.018;8.536;2022-10-31T01:54:56;12.90;99.90
11609;DHT22;5860;52.018;8.536;2022-10-31T01:57:25;12.90;99.90
11609;DHT22;5860;52.018;8.536;2022-10-31T01:59:57;12.80;99.90
11609;DHT22;5860;52.018;8.536;2022-10-31T02:02:27;12.90;99.90
11609;DHT22;5860;52.018;8.536;2022-10-31T02:04:56;12.90;99.90
11609;DHT22;5860;52.018;8.536;2022-10-31T02:07:32;12.80;99.90
11609;DHT22;5860;52.018;8.536;2022-10-31T02:10:02;12.80;99.90
11609;DHT22;5860;52.018;8.536;2022-10-31T02:12:30;12.70;99.90
11609;DHT22;5860;52.018;8.536;2022-10-31T02:14:59;12.80;99.90
11609;DHT22;5860;52.018;8.536;2022-10-31T02:17:26;12.70;99.90
11609;DHT22;5860;52.018;8.536;2022-10-31T02:20:19;12.70;99.90
11609;DHT22;5860;52.018;8.536;2022-10-31T02:23:20;12.70;99.90
11609;DHT22;5860;52.018;8.536;2022-10-31T02:32:03;12.80;99.90
11609;DHT22;5860;52.018;8.536;2022-10-31T02:34:36;12.80;99.90
11609;DHT22;5860;52.018;8.536;2022-10-31T02:38:13;12.80;99.90
11609;DHT22;5860;52.018;8.536;2022-10-31T02:40:34;12.80;99.90
11609;DHT22;5860;52.018;8.536;2022-10-31T02:45:59;12.90;99.90
11609;DHT22;5860;52.018;8.536;2022-10-31T02:48:31;13.00;99.90
11609;DHT22;5860;52.018;8.536;2022-10-31T02:51:03;12.90;99.90
11609;DHT22;5860;52.018;8.536;2022-10-31T02:53:34;12.90;99.90
11609;DHT22;5860;52.018;8.536;2022-10-31T02:56:06;13.00;99.90
11609;DHT22;5860;52.018;8.536;2022-10-31T02:58:37;13.10;99.90
11609;DHT22;5860;52.018;8.536;2022-10-31T03:07:03;13.20;99.90
11609;DHT22;5860;52.018;8.536;2022-10-31T03:12:40;13.30;99.90
11609;DHT22;5860;52.018;8.536;2022-10-31T03:15:21;13.40;99.90
11609;DHT22;5860;52.018;8.536;2022-10-31T03:17:57;13.40;99.90
11609;DHT22;5860;52.018;8.536;2022-10-31T03:20:50;13.50;99.90
11609;DHT22;5860;52.018;8.536;2022-10-31T03:23:16;13.50;99.90
11609;DHT22;5860;52.018;8.536;2022-10-31T03:25:45;13.50;99.90
11609;DHT22;5860;52.018;8.536;2022-10-31T03:28:15;13.50;99.90
11609;DHT22;5860;52.018;8.536;2022-10-31T03:30:49;13.50;99.90
11609;DHT22;5860;52.018;8.536;2022-10-31T03:33:22;13.50;99.90
11609;DHT22;5860;52.018;8.536;2022-10-31T03:35:53;13.40;99.90
11609;DHT22;5860;52.018;8.536;2022-10-31T03:38:22;13.40;99.90
11609;DHT22;5860;52.018;8.536;2022-10-31T03:40:51;13.40;99.90
11609;DHT22;5860;52.018;8.536;2022-10-31T03:43:24;13.30;99.90
11609;DHT22;5860;52.018;8.536;2022-10-31T03:45:53;13.30;99.90
11609;DHT22;5860;52.018;8.536;2022-10-31T03:48:20;13.30;99.90
11609;DHT22;5860;52.018;8.536;2022-10-31T03:51:07;13.20;99.90
11609;DHT22;5860;52.018;8.536;2022-10-31T03:53:41;13.00;99.90
11609;DHT22;5860;52.018;8.536;2022-10-31T03:56:33;13.00;99.90
11609;DHT22;5860;52.018;8.536;2022-10-31T03:59:05;12.90;99.90
11609;DHT22;5860;52.018;8.536;2022-10-31T04:01:38;13.00;99.90
11609;DHT22;5860;52.018;8.536;2022-10-31T04:04:07;12.90;99.90
11609;DHT22;5860;52.018;8.536;2022-10-31T04:06:37;12.90;99.90
11609;DHT22;5860;52.018;8.536;2022-10-31T04:09:06;12.80;99.90
11609;DHT22;5860;52.018;8.536;2022-10-31T04:11:41;12.80;99.90
11609;DHT22;5860;52.018;8.536;2022-10-31T04:14:11;12.90;99.90
11609;DHT22;5860;52.018;8.536;2022-10-31T04:16:41;12.90;99.90
11609;DHT22;5860;52.018;8.536;2022-10-31T04:19:10;12.90;99.90
11609;DHT22;5860;52.018;8.536;2022-10-31T04:21:37;12.70;99.90
11609;DHT22;5860;52.018;8.536;2022-10-31T04:24:07;12.70;99.90
11609;DHT22;5860;52.018;8.536;2022-10-31T04:26:33;12.80;99.90
11609;DHT22;5860;52.018;8.536;2022-10-31T04:29:00;12.90;99.90
11609;DHT22;5860;52.018;8.536;2022-10-31T04:31:27;12.90;99.90
11609;DHT22;5860;52.018;8.536;2022-10-31T04:33:54;13.00;99.90
11609;DHT22;5860;52.018;8.536;2022-10-31T04:36:21;13.00;99.90
11609;DHT22;5860;52.018;8.536;2022-10-31T04:38:51;13.00;99.90
11609;DHT22;5860;52.018;8.536;2022-10-31T04:41:18;12.80;99.90
11609;DHT22;5860;52.018;8.536;2022-10-31T04:43:44;12.80;99.90
11609;DHT22;5860;52.018;8.536;2022-10-31T04:46:11;12.70;99.90
11609;DHT22;5860;52.018;8.536;2022-10-31T04:48:41;12.80;99.90
11609;DHT22;5860;52.018;8.536;2022-10-31T04:51:08;12.90;99.90
11609;DHT22;5860;52.018;8.536;2022-10-31T04:53:35;12.90;99.90
11609;DHT22;5860;52.018;8.536;2022-10-31T04:56:02;12.90;99.90
11609;DHT22;5860;52.018;8.536;2022-10-31T04:58:29;12.70;99.90
11609;DHT22;5860;52.018;8.536;2022-10-31T05:00:56;12.60;99.90
11609;DHT22;5860;52.018;8.536;2022-10-31T05:03:23;12.60;99.90
11609;DHT22;5860;52.018;8.536;2022-10-31T05:05:51;12.60;99.90
11609;DHT22;5860;52.018;8.536;2022-10-31T05:08:18;12.50;99.90
11609;DHT22;5860;52.018;8.536;2022-10-31T05:10:44;12.50;99.90
11609;DHT22;5860;52.018;8.536;2022-10-31T05:13:11;12.60;99.90
11609;DHT22;5860;52.018;8.536;2022-10-31T05:15:40;12.70;99.90
11609;DHT22;5860;52.018;8.536;2022-10-31T05:18:07;12.80;99.90
11609;DHT22;5860;52.018;8.536;2022-10-31T05:20:33;12.60;99.90
11609;DHT22;5860;52.018;8.536;2022-10-31T05:23:00;12.60;99.90
11609;DHT22;5860;52.018;8.536;2022-10-31T05:25:29;12.60;99.90
11609;DHT22;5860;52.018;8.536;2022-10-31T05:27:58;12.50;99.90
11609;DHT22;5860;52.018;8.536;2022-10-31T05:30:28;12.50;99.90
11609;DHT22;5860;52.018;8.536;2022-10-31T05:32:55;12.60;99.90
11609;DHT22;5860;52.018;8.536;2022-10-31T05:35:31;12.60;99.90
11609;DHT22;5860;52.018;8.536;2022-10-31T05:37:59;12.60;99.90
11609;DHT22;5860;52.018;8.536;2022-10-31T05:40:27;12.60;99.90
11609;DHT22;5860;52.018;8.536;2022-10-31T05:42:55;12.70;99.90
11609;DHT22;5860;52.018;8.536;2022-10-31T05:45:23;12.60;99.90
11609;DHT22;5860;52.018;8.536;2022-10-31T05:47:54;12.60;99.90
11609;DHT22;5860;52.018;8.536;2022-10-31T05:50:27;12.60;99.90
11609;DHT22;5860;52.018;8.536;2022-10-31T05:53:05;12.40;99.90
11609;DHT22;5860;52.018;8.536;2022-10-31T05:55:32;12.50;99.90
11609;DHT22;5860;52.018;8.536;2022-10-31T05:57:59;12.50;99.90
11609;DHT22;5860;52.018;8.536;2022-10-31T06:00:28;12.50;99.90
11609;DHT22;5860;52.018;8.536;2022-10-31T06:02:59;12.50;99.90
11609;DHT22;5860;52.018;8.536;2022-10-31T06:05:28;12.50;99.90
11609;DHT22;5860;52.018;8.536;2022-10-31T06:07:55;12.40;99.90
11609;DHT22;5860;52.018;8.536;2022-10-31T06:10:23;12.40;99.90
11609;DHT22;5860;52.018;8.536;2022-10-31T06:12:50;12.40;99.90
11609;DHT22;5860;52.018;8.536;2022-10-31T06:15:20;12.50;99.90
11609;DHT22;5860;52.018;8.536;2022-10-31T06:18:04;12.60;99.90
11609;DHT22;5860;52.018;8.536;2022-10-31T06:20:32;12.60;99.90
11609;DHT22;5860;52.018;8.536;2022-10-31T06:22:59;12.60;99.90
11609;DHT22;5860;52.018;8.536;2022-10-31T06:25:27;12.70;99.90
11609;DHT22;5860;52.018;8.536;2022-10-31T06:27:55;12.70;99.90
11609;DHT22;5860;52.018;8.536;2022-10-31T06:30:22;12.70;99.90
11609;DHT22;5860;52.018;8.536;2022-10-31T06:32:49;12.70;99.90
11609;DHT22;5860;52.018;8.536;2022-10-31T06:35:16;12.70;99.90
11609;DHT22;5860;52.018;8.536;2022-10-31T06:37:53;12.80;99.90
11609;DHT22;5860;52.018;8.536;2022-10-31T06:40:21;12.80;99.90
11609;DHT22;5860;52.018;8.536;2022-10-31T06:43:01;12.90;99.90
11609;DHT22;5860;52.018;8.536;2022-10-31T06:45:29;12.90;99.90
11609;DHT22;5860;52.018;8.536;2022-10-31T06:47:56;12.90;99.90
11609;DHT22;5860;52.018;8.536;2022-10-31T06:53:13;13.00;99.90
11609;DHT22;5860;52.018;8.536;2022-10-31T06:55:41;13.00;99.90
11609;DHT22;5860;52.018;8.536;2022-10-31T06:58:10;13.10;99.90
11609;DHT22;5860;52.018;8.536;2022-10-31T07:00:37;13.20;99.90
11609;DHT22;5860;52.018;8.536;2022-10-31T07:03:06;13.30;99.90
11609;DHT22;5860;52.018;8.536;2022-10-31T07:05:33;13.40;99.90
11609;DHT22;5860;52.018;8.536;2022-10-31T07:08:05;13.40;99.90
11609;DHT22;5860;52.018;8.536;2022-10-31T07:10:34;13.50;99.90
11609;DHT22;5860;52.018;8.536;2022-10-31T07:13:12;13.60;99.90
11609;DHT22;5860;52.018;8.536;2022-10-31T07:15:40;13.70;99.90
11609;DHT22;5860;52.018;8.536;2022-10-31T07:18:09;13.80;99.90
11609;DHT22;5860;52.018;8.536;2022-10-31T07:20:36;13.80;99.90
11609;DHT22;5860;52.018;8.536;2022-10-31T07:23:06;13.80;99.90
11609;DHT22;5860;52.018;8.536;2022-10-31T07:25:33;13.40;99.90
11609;DHT22;5860;52.018;8.536;2022-10-31T07:27:59;13.30;99.90
11609;DHT22;5860;52.018;8.536;2022-10-31T07:30:27;13.20;99.90
11609;DHT22;5860;52.018;8.536;2022-10-31T07:32:54;13.10;99.90
11609;DHT22;5860;52.018;8.536;2022-10-31T07:35:24;13.10;99.90
11609;DHT22;5860;52.018;8.536;2022-10-31T07:37:51;13.00;99.90
11609;DHT22;5860;52.018;8.536;2022-10-31T07:40:19;13.10;99.90
11609;DHT22;5860;52.018;8.536;2022-10-31T07:42:50;13.20;99.90
11609;DHT22;5860;52.018;8.536;2022-10-31T07:45:20;13.10;99.90
11609;DHT22;5860;52.018;8.536;2022-10-31T07:47:49;13.20;99.90
11609;DHT22;5860;52.018;8.536;2022-10-31T07:50:20;13.40;99.90
11609;DHT22;5860;52.018;8.536;2022-10-31T07:52:47;13.60;99.90
11609;DHT22;5860;52.018;8.536;2022-10-31T07:55:14;13.60;99.90
11609;DHT22;5860;52.018;8.536;2022-10-31T07:57:41;13.60;99.90
11609;DHT22;5860;52.018;8.536;2022-10-31T08:00:09;13.60;99.90
11609;DHT22;5860;52.018;8.536;2022-10-31T08:02:37;13.80;99.90
11609;DHT22;5860;52.018;8.536;2022-10-31T08:05:04;13.70;99.90
11609;DHT22;5860;52.018;8.536;2022-10-31T08:07:36;13.80;99.90
11609;DHT22;5860;52.018;8.536;2022-10-31T08:10:04;14.00;99.90
11609;DHT22;5860;52.018;8.536;2022-10-31T08:12:31;14.10;99.90
11609;DHT22;5860;52.018;8.536;2022-10-31T08:14:58;14.10;99.90
11609;DHT22;5860;52.018;8.536;2022-10-31T08:17:25;14.20;99.90
11609;DHT22;5860;52.018;8.536;2022-10-31T08:19:56;14.30;99.90
11609;DHT22;5860;52.018;8.536;2022-10-31T08:22:22;14.10;99.90
11609;DHT22;5860;52.018;8.536;2022-10-31T08:24:49;14.00;99.90
11609;DHT22;5860;52.018;8.536;2022-10-31T08:27:16;14.00;99.90
11609;DHT22;5860;52.018;8.536;2022-10-31T08:29:46;14.10;99.90
11609;DHT22;5860;52.018;8.536;2022-10-31T08:32:13;14.30;99.90
11609;DHT22;5860;52.018;8.536;2022-10-31T08:34:40;14.10;99.90
11609;DHT22;5860;52.018;8.536;2022-10-31T08:37:07;14.20;99.90
11609;DHT22;5860;52.018;8.536;2022-10-31T08:39:34;14.00;99.90
11609;DHT22;5860;52.018;8.536;2022-10-31T08:42:00;14.10;99.90
11609;DHT22;5860;52.018;8.536;2022-10-31T08:44:27;14.00;99.90
11609;DHT22;5860;52.018;8.536;2022-10-31T08:46:55;13.90;99.90
11609;DHT22;5860;52.018;8.536;2022-10-31T08:49:22;14.00;99.90
11609;DHT22;5860;52.018;8.536;2022-10-31T08:51:49;14.00;99.90
11609;DHT22;5860;52.018;8.536;2022-10-31T08:54:16;13.80;99.90
11609;DHT22;5860;52.018;8.536;2022-10-31T08:56:45;13.90;99.90
11609;DHT22;5860;52.018;8.536;2022-10-31T08:59:12;13.90;99.90
11609;DHT22;5860;52.018;8.536;2022-10-31T09:01:42;14.00;99.90
11609;DHT22;5860;52.018;8.536;2022-10-31T09:04:09;14.10;99.90
11609;DHT22;5860;52.018;8.536;2022-10-31T09:06:35;14.20;99.90
11609;DHT22;5860;52.018;8.536;2022-10-31T09:09:03;14.30;99.90
11609;DHT22;5860;52.018;8.536;2022-10-31T09:11:31;14.20;99.90
11609;DHT22;5860;52.018;8.536;2022-10-31T09:13:57;14.30;99.90
11609;DHT22;5860;52.018;8.536;2022-10-31T09:16:24;14.40;99.90
11609;DHT22;5860;52.018;8.536;2022-10-31T09:18:51;14.50;99.90
11609;DHT22;5860;52.018;8.536;2022-10-31T09:21:18;14.60;99.90
11609;DHT22;5860;52.018;8.536;2022-10-31T09:23:45;14.60;99.90
11609;DHT22;5860;52.018;8.536;2022-10-31T09:26:12;14.60;99.90
11609;DHT22;5860;52.018;8.536;2022-10-31T09:28:39;14.50;99.90
11609;DHT22;5860;52.018;8.536;2022-10-31T09:31:05;14.60;99.90
11609;DHT22;5860;52.018;8.536;2022-10-31T09:33:32;14.70;99.90
11609;DHT22;5860;52.018;8.536;2022-10-31T09:35:59;14.90;99.90
11609;DHT22;5860;52.018;8.536;2022-10-31T09:38:26;14.90;99.90
11609;DHT22;5860;52.018;8.536;2022-10-31T09:41:03;15.00;99.90
11609;DHT22;5860;52.018;8.536;2022-10-31T09:46:38;15.30;99.90
11609;DHT22;5860;52.018;8.536;2022-10-31T09:52:19;15.40;99.90
11609;DHT22;5860;52.018;8.536;2022-10-31T09:54:54;15.40;99.90
11609;DHT22;5860;52.018;8.536;2022-10-31T09:57:28;15.50;99.90
11609;DHT22;5860;52.018;8.536;2022-10-31T09:59:56;15.50;99.90
11609;DHT22;5860;52.018;8.536;2022-10-31T10:02:40;15.60;99.90
11609;DHT22;5860;52.018;8.536;2022-10-31T10:06:06;15.70;99.90
11609;DHT22;5860;52.018;8.536;2022-10-31T10:08:23;15.80;99.90
11609;DHT22;5860;52.018;8.536;2022-10-31T10:10:54;15.90;99.90
11609;DHT22;5860;52.018;8.536;2022-10-31T10:13:32;15.70;99.90
11609;DHT22;5860;52.018;8.536;2022-10-31T10:19:02;15.90;99.90
11609;DHT22;5860;52.018;8.536;2022-10-31T10:21:50;16.00;99.90
11609;DHT22;5860;52.018;8.536;2022-10-31T10:24:33;16.20;99.90
11609;DHT22;5860;52.018;8.536;2022-10-31T10:30:02;16.20;99.90
11609;DHT22;5860;52.018;8.536;2022-10-31T10:32:38;16.20;99.90
11609;DHT22;5860;52.018;8.536;2022-10-31T10:35:47;16.40;99.90
11609;DHT22;5860;52.018;8.536;2022-10-31T10:38:27;16.50;99.90
11609;DHT22;5860;52.018;8.536;2022-10-31T10:40:55;16.60;99.90
11609;DHT22;5860;52.018;8.536;2022-10-31T10:43:34;16.70;99.90
11609;DHT22;5860;52.018;8.536;2022-10-31T10:52:05;16.70;99.90
11609;DHT22;5860;52.018;8.536;2022-10-31T10:55:08;16.80;99.90
11609;DHT22;5860;52.018;8.536;2022-10-31T10:57:54;16.80;99.90
11609;DHT22;5860;52.018;8.536;2022-10-31T11:00:28;16.90;99.90
11609;DHT22;5860;52.018;8.536;2022-10-31T11:02:56;16.90;99.90
11609;DHT22;5860;52.018;8.536;2022-10-31T11:08:25;17.50;99.90
11609;DHT22;5860;52.018;8.536;2022-10-31T11:11:02;17.70;99.90
11609;DHT22;5860;52.018;8.536;2022-10-31T11:13:31;17.60;99.90
11609;DHT22;5860;52.018;8.536;2022-10-31T11:18:29;17.70;99.90
11609;DHT22;5860;52.018;8.536;2022-10-31T11:20:58;17.90;99.90
11609;DHT22;5860;52.018;8.536;2022-10-31T11:23:27;17.90;99.90
11609;DHT22;5860;52.018;8.536;2022-10-31T11:26:05;18.00;99.90
11609;DHT22;5860;52.018;8.536;2022-10-31T11:28:33;17.90;99.90
11609;DHT22;5860;52.018;8.536;2022-10-31T11:31:08;18.00;99.90
11609;DHT22;5860;52.018;8.536;2022-10-31T11:33:45;18.00;99.90
11609;DHT22;5860;52.018;8.536;2022-10-31T11:36:27;18.20;99.90
11609;DHT22;5860;52.018;8.536;2022-10-31T11:38:56;18.10;99.90
11609;DHT22;5860;52.018;8.536;2022-10-31T11:41:36;18.00;99.90
11609;DHT22;5860;52.018;8.536;2022-10-31T11:44:17;17.90;99.90
11609;DHT22;5860;52.018;8.536;2022-10-31T11:46:48;17.90;99.90
11609;DHT22;5860;52.018;8.536;2022-10-31T11:49:43;17.70;99.90
11609;DHT22;5860;52.018;8.536;2022-10-31T11:52:16;17.60;99.90
11609;DHT22;5860;52.018;8.536;2022-10-31T11:54:48;17.60;99.90
11609;DHT22;5860;52.018;8.536;2022-10-31T11:57:29;17.60;99.90
11609;DHT22;5860;52.018;8.536;2022-10-31T11:59:58;17.70;99.90
11609;DHT22;5860;52.018;8.536;2022-10-31T12:02:26;17.80;99.90
11609;DHT22;5860;52.018;8.536;2022-10-31T12:05:04;17.80;99.90
11609;DHT22;5860;52.018;8.536;2022-10-31T12:07:34;17.90;99.90
11609;DHT22;5860;52.018;8.536;2022-10-31T12:10:09;17.80;99.90
11609;DHT22;5860;52.018;8.536;2022-10-31T12:17:55;17.70;99.90
11609;DHT22;5860;52.018;8.536;2022-10-31T12:33:59;18.20;99.90
11609;DHT22;5860;52.018;8.536;2022-10-31T12:39:46;18.20;99.90
11609;DHT22;5860;52.018;8.536;2022-10-31T12:42:45;18.10;99.90
11609;DHT22;5860;52.018;8.536;2022-10-31T12:45:42;18.00;99.90
11609;DHT22;5860;52.018;8.536;2022-10-31T12:59:48;18.20;99.90
11609;DHT22;5860;52.018;8.536;2022-10-31T13:01:55;18.20;99.90
11609;DHT22;5860;52.018;8.536;2022-10-31T13:07:15;18.00;99.90
11609;DHT22;5860;52.018;8.536;2022-10-31T13:10:13;18.10;99.90
11609;DHT22;5860;52.018;8.536;2022-10-31T13:12:42;18.10;99.90
11609;DHT22;5860;52.018;8.536;2022-10-31T13:15:23;18.10;99.90
11609;DHT22;5860;52.018;8.536;2022-10-31T13:17:56;18.20;99.90
11609;DHT22;5860;52.018;8.536;2022-10-31T13:20:49;18.30;99.90
11609;DHT22;5860;52.018;8.536;2022-10-31T13:23:27;18.30;99.90
11609;DHT22;5860;52.018;8.536;2022-10-31T13:26:37;18.30;99.90
11609;DHT22;5860;52.018;8.536;2022-10-31T13:29:22;18.40;99.90
11609;DHT22;5860;52.018;8.536;2022-10-31T13:31:55;18.40;99.90
11609;DHT22;5860;52.018;8.536;2022-10-31T13:34:30;18.40;99.90
11609;DHT22;5860;52.018;8.536;2022-10-31T13:37:30;18.50;99.90
11609;DHT22;5860;52.018;8.536;2022-10-31T13:45:16;18.40;99.90
11609;DHT22;5860;52.018;8.536;2022-10-31T13:48:01;18.50;99.90
11609;DHT22;5860;52.018;8.536;2022-10-31T13:50:59;18.40;99.90
11609;DHT22;5860;52.018;8.536;2022-10-31T13:53:45;18.40;99.90
11609;DHT22;5860;52.018;8.536;2022-10-31T14:01:36;18.30;99.90
11609;DHT22;5860;52.018;8.536;2022-10-31T14:04:05;18.20;99.90
11609;DHT22;5860;52.018;8.536;2022-10-31T14:10:01;18.20;99.90
11609;DHT22;5860;52.018;8.536;2022-10-31T14:15:22;18.10;99.90
11609;DHT22;5860;52.018;8.536;2022-10-31T14:17:59;18.00;99.90
11609;DHT22;5860;52.018;8.536;2022-10-31T14:25:40;18.00;99.90
11609;DHT22;5860;52.018;8.536;2022-10-31T14:28:39;18.00;99.90
11609;DHT22;5860;52.018;8.536;2022-10-31T14:33:54;18.00;99.90
11609;DHT22;5860;52.018;8.536;2022-10-31T14:36:38;18.00;99.90
11609;DHT22;5860;52.018;8.536;2022-10-31T14:39:22;18.00;99.90
11609;DHT22;5860;52.018;8.536;2022-10-31T14:47:52;17.30;99.90
11609;DHT22;5860;52.018;8.536;2022-10-31T14:51:02;17.90;99.90
11609;DHT22;5860;52.018;8.536;2022-10-31T14:53:40;17.90;99.90
11609;DHT22;5860;52.018;8.536;2022-10-31T14:56:10;17.90;99.90
11609;DHT22;5860;52.018;8.536;2022-10-31T14:58:41;17.80;99.90
11609;DHT22;5860;52.018;8.536;2022-10-31T15:01:32;17.70;99.90
11609;DHT22;5860;52.018;8.536;2022-10-31T15:04:22;17.70;99.90
11609;DHT22;5860;52.018;8.536;2022-10-31T15:07:18;17.60;99.90
11609;DHT22;5860;52.018;8.536;2022-10-31T15:10:23;17.60;99.90
11609;DHT22;5860;52.018;8.536;2022-10-31T15:12:50;17.60;99.90
11609;DHT22;5860;52.018;8.536;2022-10-31T15:15:25;17.50;99.90
11609;DHT22;5860;52.018;8.536;2022-10-31T15:17:58;17.60;99.90
11609;DHT22;5860;52.018;8.536;2022-10-31T15:20:31;17.60;99.90
11609;DHT22;5860;52.018;8.536;2022-10-31T15:23:02;17.60;99.90
11609;DHT22;5860;52.018;8.536;2022-10-31T15:25:33;17.60;99.90
11609;DHT22;5860;52.018;8.536;2022-10-31T15:28:00;17.60;99.90
11609;DHT22;5860;52.018;8.536;2022-10-31T15:30:28;17.60;99.90
11609;DHT22;5860;52.018;8.536;2022-10-31T15:32:55;17.50;99.90
11609;DHT22;5860;52.018;8.536;2022-10-31T15:35:28;17.50;99.90
11609;DHT22;5860;52.018;8.536;2022-10-31T15:37:57;17.50;99.90
11609;DHT22;5860;52.018;8.536;2022-10-31T15:40:26;17.40;99.90
11609;DHT22;5860;52.018;8.536;2022-10-31T15:42:59;17.40;99.90
11609;DHT22;5860;52.018;8.536;2022-10-31T15:45:28;17.40;99.90
11609;DHT22;5860;52.018;8.536;2022-10-31T15:48:02;17.40;99.90
11609;DHT22;5860;52.018;8.536;2022-10-31T15:53:04;17.30;99.90
11609;DHT22;5860;52.018;8.536;2022-10-31T15:55:38;17.30;99.90
11609;DHT22;5860;52.018;8.536;2022-10-31T15:58:13;17.40;99.90
11609;DHT22;5860;52.018;8.536;2022-10-31T16:00:41;17.30;99.90
11609;DHT22;5860;52.018;8.536;2022-10-31T16:08:35;17.20;99.90
11609;DHT22;5860;52.018;8.536;2022-10-31T16:13:35;17.10;99.90
11609;DHT22;5860;52.018;8.536;2022-10-31T16:16:13;17.00;99.90
11609;DHT22;5860;52.018;8.536;2022-10-31T16:19:02;17.00;99.90
11609;DHT22;5860;52.018;8.536;2022-10-31T16:21:33;17.00;99.90
11609;DHT22;5860;52.018;8.536;2022-10-31T16:24:04;17.00;99.90
11609;DHT22;5860;52.018;8.536;2022-10-31T16:26:32;16.90;99.90
11609;DHT22;5860;52.018;8.536;2022-10-31T16:29:00;16.80;99.90
11609;DHT22;5860;52.018;8.536;2022-10-31T16:31:38;16.70;99.90
11609;DHT22;5860;52.018;8.536;2022-10-31T16:34:19;16.70;99.90
11609;DHT22;5860;52.018;8.536;2022-10-31T16:36:52;16.70;99.90
11609;DHT22;5860;52.018;8.536;2022-10-31T16:39:19;16.70;99.90
11609;DHT22;5860;52.018;8.536;2022-10-31T16:41:50;16.60;99.90
11609;DHT22;5860;52.018;8.536;2022-10-31T16:44:25;16.60;99.90
11609;DHT22;5860;52.018;8.536;2022-10-31T16:47:15;16.60;99.90
11609;DHT22;5860;52.018;8.536;2022-10-31T16:49:43;16.60;99.90
11609;DHT22;5860;52.018;8.536;2022-10-31T16:52:12;16.70;99.90
11609;DHT22;5860;52.018;8.536;2022-10-31T16:54:39;16.60;99.90
11609;DHT22;5860;52.018;8.536;2022-10-31T16:57:08;16.60;99.90
11609;DHT22;5860;52.018;8.536;2022-10-31T16:59:39;16.50;99.90
11609;DHT22;5860;52.018;8.536;2022-10-31T17:02:14;16.40;99.90
11609;DHT22;5860;52.018;8.536;2022-10-31T17:04:41;16.30;99.90
11609;DHT22;5860;52.018;8.536;2022-10-31T17:07:08;16.20;99.90
11609;DHT22;5860;52.018;8.536;2022-10-31T17:09:35;16.10;99.90
11609;DHT22;5860;52.018;8.536;2022-10-31T17:12:03;16.00;99.90
11609;DHT22;5860;52.018;8.536;2022-10-31T17:14:31;15.90;99.90
11609;DHT22;5860;52.018;8.536;2022-10-31T17:16:58;16.00;99.90
11609;DHT22;5860;52.018;8.536;2022-10-31T17:19:24;16.00;99.90
11609;DHT22;5860;52.018;8.536;2022-10-31T17:21:51;16.10;99.90
11609;DHT22;5860;52.018;8.536;2022-10-31T17:24:18;16.00;99.90
11609;DHT22;5860;52.018;8.536;2022-10-31T17:26:45;16.10;99.90
11609;DHT22;5860;52.018;8.536;2022-10-31T17:29:12;16.10;99.90
11609;DHT22;5860;52.018;8.536;2022-10-31T17:31:41;16.20;99.90
11609;DHT22;5860;52.018;8.536;2022-10-31T17:34:08;16.20;99.90
11609;DHT22;5860;52.018;8.536;2022-10-31T17:36:35;16.10;99.90
11609;DHT22;5860;52.018;8.536;2022-10-31T17:39:03;15.90;99.90
11609;DHT22;5860;52.018;8.536;2022-10-31T17:41:33;16.00;99.90
11609;DHT22;5860;52.018;8.536;2022-10-31T17:43:59;15.90;99.90
11609;DHT22;5860;52.018;8.536;2022-10-31T17:46:26;15.90;99.90
11609;DHT22;5860;52.018;8.536;2022-10-31T17:48:54;15.90;99.90
11609;DHT22;5860;52.018;8.536;2022-10-31T17:51:21;15.90;99.90
11609;DHT22;5860;52.018;8.536;2022-10-31T17:53:48;15.80;99.90
11609;DHT22;5860;52.018;8.536;2022-10-31T17:56:15;15.80;99.90
11609;DHT22;5860;52.018;8.536;2022-10-31T17:58:42;15.90;99.90
11609;DHT22;5860;52.018;8.536;2022-10-31T18:01:15;15.80;99.90
11609;DHT22;5860;52.018;8.536;2022-10-31T18:03:43;15.70;99.90
11609;DHT22;5860;52.018;8.536;2022-10-31T18:06:11;15.60;99.90
11609;DHT22;5860;52.018;8.536;2022-10-31T18:08:42;15.60;99.90
11609;DHT22;5860;52.018;8.536;2022-10-31T18:11:14;15.50;99.90
11609;DHT22;5860;52.018;8.536;2022-10-31T18:13:42;15.50;99.90
11609;DHT22;5860;52.018;8.536;2022-10-31T18:16:11;15.50;99.90
11609;DHT22;5860;52.018;8.536;2022-10-31T18:18:39;15.40;99.90
11609;DHT22;5860;52.018;8.536;2022-10-31T18:21:06;15.40;99.90
11609;DHT22;5860;52.018;8.536;2022-10-31T18:23:33;15.20;99.90